Time;durP1;ratioP1;P1;durP2;ratioP2;P2;SDS_P1;SDS_P2;PMS_P1;PMS_P2;Temp;Humidity;BMP_temperature;BMP_pressure;BME280_temperature;BME280_humidity;BME280_pressure;Samples;Min_cycle;Max_cycle;Signal;HPM_P1;HPM_P2
2021/10/25 00:02:25;;;;;;;10.75;6.65;;;;;;;3.79;73.26;99481.66;2618302;54;20082;-68
2021/10/25 00:04:57;;;;;;;15.45;7.05;;;;;;;3.69;73.03;99478.19;2618716;31;20508;-68
2021/10/25 00:07:27;;;;;;;8.43;6.45;;;;;;;3.53;73.02;99480.47;2618425;54;20029;-69
2021/10/25 00:09:56;;;;;;;9.38;7.30;;;;;;;3.50;73.61;99472.88;2618346;54;20034;-70
2021/10/25 00:12:26;;;;;;;10.02;5.72;;;;;;;3.53;73.76;99473.44;2618129;54;20031;-70
2021/10/25 00:14:56;;;;;;;8.75;6.30;;;;;;;3.54;73.75;99472.47;2618137;54;20034;-70
2021/10/25 00:17:26;;;;;;;7.65;5.78;;;;;;;3.47;73.36;99469.59;2617997;54;20046;-68
2021/10/25 00:19:58;;;;;;;7.07;5.65;;;;;;;3.40;73.49;99460.59;2618102;54;20077;-69
2021/10/25 00:22:28;;;;;;;8.43;5.80;;;;;;;3.34;73.97;99468.94;2617681;39;20442;-69
2021/10/25 00:24:57;;;;;;;8.48;5.82;;;;;;;3.34;73.73;99468.94;2619279;54;20038;-70
2021/10/25 00:27:27;;;;;;;8.27;5.40;;;;;;;3.36;73.96;99464.44;2626267;54;20026;-70
2021/10/25 00:29:57;;;;;;;8.43;5.68;;;;;;;3.34;73.82;99460.28;2626363;54;20022;-70
2021/10/25 00:32:27;;;;;;;8.40;6.03;;;;;;;3.30;73.53;99464.94;2624136;54;20051;-69
2021/10/25 00:34:59;;;;;;;6.47;5.68;;;;;;;3.22;73.34;99465.63;2624771;47;20037;-69
2021/10/25 00:37:28;;;;;;;6.20;5.25;;;;;;;3.17;73.57;99462.53;2623451;39;20676;-70
2021/10/25 00:39:58;;;;;;;6.22;4.97;;;;;;;3.12;73.73;99466.50;2623894;54;20561;-70
2021/10/25 00:42:28;;;;;;;6.85;5.25;;;;;;;3.04;73.38;99458.50;2625381;54;20050;-69
2021/10/25 00:44:57;;;;;;;9.38;5.13;;;;;;;3.02;73.73;99466.47;2625525;47;20525;-70
2021/10/25 00:47:27;;;;;;;6.68;4.90;;;;;;;2.94;73.81;99461.88;2625750;47;20057;-69
2021/10/25 00:49:59;;;;;;;5.43;4.75;;;;;;;2.89;73.93;99464.00;2626022;54;20082;-72
2021/10/25 00:52:30;;;;;;;7.35;4.93;;;;;;;2.86;73.94;99466.91;2625479;54;20045;-71
2021/10/25 00:55:00;;;;;;;7.03;5.00;;;;;;;2.85;74.51;99467.84;2626376;54;20583;-71
2021/10/25 00:57:32;;;;;;;5.85;4.60;;;;;;;2.85;73.84;99464.41;2625737;54;20026;-71
2021/10/25 01:00:02;;;;;;;5.28;4.65;;;;;;;2.84;74.49;99465.38;2625734;47;20086;-70
2021/10/25 01:02:32;;;;;;;6.32;4.95;;;;;;;2.87;73.99;99467.72;2625917;51;20078;-71
2021/10/25 01:05:05;;;;;;;6.53;5.10;;;;;;;2.85;73.92;99461.78;2625730;54;20046;-71
2021/10/25 01:07:36;;;;;;;7.20;4.82;;;;;;;2.80;73.87;99459.56;2625481;54;20027;-70
2021/10/25 01:10:06;;;;;;;6.50;5.00;;;;;;;2.78;73.78;99455.44;2624057;54;20038;-69
2021/10/25 01:12:39;;;;;;;7.63;5.32;;;;;;;2.73;73.81;99463.63;2623903;54;20049;-69
2021/10/25 01:15:09;;;;;;;8.45;5.30;;;;;;;2.64;74.16;99456.56;2622537;47;20038;-70
2021/10/25 01:17:40;;;;;;;6.10;5.18;;;;;;;2.51;74.24;99461.13;2622264;47;20030;-70
2021/10/25 01:20:13;;;;;;;6.22;5.07;;;;;;;2.54;74.33;99459.09;2622538;54;20030;-69
2021/10/25 01:22:42;;;;;;;8.23;4.43;;;;;;;2.48;74.03;99456.97;2622244;54;20030;-69
2021/10/25 01:25:12;;;;;;;6.70;4.53;;;;;;;2.46;74.59;99451.91;2620823;54;20044;-69
2021/10/25 01:27:42;;;;;;;6.85;5.03;;;;;;;2.53;74.42;99461.81;2621341;54;20022;-70
2021/10/25 01:30:12;;;;;;;9.07;5.13;;;;;;;2.50;74.58;99455.09;2620974;54;20034;-70
2021/10/25 01:32:43;;;;;;;9.63;4.93;;;;;;;2.59;74.60;99462.16;2620864;47;20030;-70
2021/10/25 01:35:16;;;;;;;5.75;4.88;;;;;;;2.69;74.40;99459.63;2620744;54;20041;-70
2021/10/25 01:37:46;;;;;;;8.30;5.18;;;;;;;2.73;73.92;99461.88;2620190;54;20023;-70
2021/10/25 01:40:17;;;;;;;6.22;4.88;;;;;;;2.68;73.89;99448.34;2623529;47;20027;-70
2021/10/25 01:42:47;;;;;;;7.70;4.65;;;;;;;2.60;73.80;99448.16;2624926;47;20033;-70
2021/10/25 01:45:17;;;;;;;5.60;4.78;;;;;;;2.57;73.72;99458.00;2624869;47;20035;-69
2021/10/25 01:47:46;;;;;;;6.80;4.53;;;;;;;2.60;74.32;99460.38;2625162;54;20054;-73
2021/10/25 01:50:19;;;;;;;7.35;5.38;;;;;;;2.62;73.85;99453.25;2624779;39;20450;-71
2021/10/25 01:52:48;;;;;;;6.50;4.88;;;;;;;2.64;73.94;99449.56;2625312;47;20031;-70
2021/10/25 01:55:19;;;;;;;8.52;5.20;;;;;;;2.60;73.68;99450.75;2626483;31;20522;-70
2021/10/25 01:57:49;;;;;;;6.40;5.05;;;;;;;2.35;73.17;99451.94;2625517;54;20022;-71
2021/10/25 02:00:19;;;;;;;7.55;5.13;;;;;;;2.20;74.42;99451.41;2626782;39;20466;-71
2021/10/25 02:02:49;;;;;;;7.28;5.18;;;;;;;2.27;74.13;99456.13;2624087;47;20097;-69
2021/10/25 02:05:42;;;;;;;5.78;4.72;;;;;;;2.29;74.33;99449.84;2624202;47;20046;-69
2021/10/25 02:08:13;;;;;;;5.63;4.43;;;;;;;2.31;74.28;99444.50;2625045;47;20086;-70
2021/10/25 02:10:52;;;;;;;6.07;4.88;;;;;;;2.32;74.28;99451.34;2624327;54;20283;-69
2021/10/25 02:13:23;;;;;;;5.10;4.40;;;;;;;2.33;73.96;99443.41;2627292;39;20203;-69
2021/10/25 02:15:53;;;;;;;6.28;4.57;;;;;;;2.33;74.28;99448.63;2624332;54;20542;-69
2021/10/25 02:18:24;;;;;;;6.78;4.75;;;;;;;2.31;74.36;99450.53;2624665;54;20077;-70
2021/10/25 02:20:56;;;;;;;8.02;4.75;;;;;;;2.35;73.90;99451.13;2624186;47;20041;-69
2021/10/25 02:23:26;;;;;;;8.93;5.32;;;;;;;2.19;74.18;99448.91;2625092;54;20109;-69
2021/10/25 02:25:58;;;;;;;5.40;4.43;;;;;;;2.30;74.36;99448.88;2625385;54;20062;-69
2021/10/25 02:28:28;;;;;;;6.13;4.38;;;;;;;2.37;73.64;99447.44;2626194;39;20511;-69
2021/10/25 02:30:59;;;;;;;6.47;4.72;;;;;;;2.33;73.37;99442.59;2625291;54;20537;-69
2021/10/25 02:33:34;;;;;;;9.82;5.00;;;;;;;2.28;73.74;99440.34;2625388;54;20589;-69
2021/10/25 02:36:07;;;;;;;9.18;5.05;;;;;;;2.31;74.09;99432.25;2625446;54;20034;-69
2021/10/25 02:38:42;;;;;;;5.10;4.60;;;;;;;2.37;73.80;99433.56;2625352;54;20030;-69
2021/10/25 02:41:13;;;;;;;7.97;4.68;;;;;;;2.43;73.57;99436.47;2625742;54;20030;-69
2021/10/25 02:43:44;;;;;;;8.25;5.10;;;;;;;2.51;73.37;99433.25;2625459;54;20042;-70
2021/10/25 02:46:14;;;;;;;5.15;4.60;;;;;;;2.54;73.43;99437.41;2625988;46;20078;-70
2021/10/25 02:48:46;;;;;;;7.72;4.47;;;;;;;2.56;73.33;99433.69;2626245;47;20046;-70
2021/10/25 02:51:20;;;;;;;6.13;4.45;;;;;;;2.58;73.03;99430.97;2627479;39;20461;-71
2021/10/25 02:53:55;;;;;;;7.53;4.80;;;;;;;2.55;72.49;99426.00;2625986;47;20038;-71
2021/10/25 02:56:31;;;;;;;7.68;4.80;;;;;;;2.23;72.68;99427.66;2626156;46;20041;-72
2021/10/25 02:59:01;;;;;;;6.03;4.93;;;;;;;2.15;73.28;99437.88;2625920;54;20082;-71
2021/10/25 03:01:30;;;;;;;9.10;4.82;;;;;;;2.07;73.39;99426.41;2624923;54;20044;-71
2021/10/25 03:04:05;;;;;;;;;;;;;;;1.92;73.42;99421.50;2627060;54;20089;-71
2021/10/25 03:06:37;;;;;;;9.57;4.43;;;;;;;1.89;73.35;99426.13;2625630;47;20026;-70
2021/10/25 03:09:09;;;;;;;5.60;5.10;;;;;;;1.94;73.79;99429.19;2625973;47;20050;-71
2021/10/25 03:11:41;;;;;;;6.07;4.18;;;;;;;2.06;73.86;99430.81;2625709;54;20037;-71
2021/10/25 03:14:11;;;;;;;5.30;4.10;;;;;;;2.17;73.92;99429.97;2625965;47;20045;-71
2021/10/25 03:17:03;;;;;;;6.97;4.25;;;;;;;2.12;73.25;99427.72;2625114;47;20030;-71
2021/10/25 03:19:40;;;;;;;10.50;5.05;;;;;;;2.08;73.36;99430.69;2625659;47;20137;-71
2021/10/25 03:22:13;;;;;;;6.32;5.15;;;;;;;1.97;73.50;99427.16;2625882;47;20058;-71
2021/10/25 03:24:43;;;;;;;5.95;5.07;;;;;;;1.82;73.70;99422.34;2624846;47;20023;-71
2021/10/25 03:27:13;;;;;;;5.65;4.95;;;;;;;1.82;73.42;99427.56;2624676;47;20022;-70
2021/10/25 03:29:42;;;;;;;5.97;4.57;;;;;;;1.84;73.67;99412.63;2625058;54;20643;-70
2021/10/25 03:32:12;;;;;;;6.75;4.38;;;;;;;1.85;73.93;99416.88;2624931;54;20038;-71
2021/10/25 03:34:42;;;;;;;5.75;4.53;;;;;;;1.97;74.53;99413.31;2624876;54;20031;-70
2021/10/25 03:37:16;;;;;;;8.57;4.65;;;;;;;2.11;74.23;99422.63;2624537;47;20047;-70
2021/10/25 03:39:47;;;;;;;6.68;4.40;;;;;;;2.20;74.03;99424.47;2624193;54;20038;-70
2021/10/25 03:42:24;;;;;;;5.50;4.38;;;;;;;2.32;73.91;99431.31;2622545;54;20026;-71
2021/10/25 03:45:00;;;;;;;5.72;3.97;;;;;;;2.36;73.48;99432.72;2623059;54;20034;-70
2021/10/25 03:47:35;;;;;;;5.90;4.53;;;;;;;2.39;73.07;99427.25;2622308;54;20030;-70
2021/10/25 03:50:11;;;;;;;7.45;4.53;;;;;;;2.27;72.71;99419.59;2620925;54;20035;-70
2021/10/25 03:52:49;;;;;;;;;;;;;;;2.00;72.77;99405.25;2620623;54;20038;-70
2021/10/25 03:55:28;;;;;;;7.82;5.20;;;;;;;1.90;73.02;99401.69;2620306;54;19943;-71
2021/10/25 03:58:22;;;;;;;7.70;5.03;;;;;;;1.80;73.19;99391.19;2621217;54;20014;-71
2021/10/25 04:28:33;;;;;;;8.85;5.70;;;;;;;1.87;74.03;99386.28;2625354;47;20133;-71
2021/10/25 04:31:05;;;;;;;7.45;5.70;;;;;;;1.96;74.07;99388.19;2623169;54;20045;-70
2021/10/25 04:33:45;;;;;;;7.60;5.20;;;;;;;2.08;73.82;99392.41;2619689;54;20027;-70
2021/10/25 04:36:33;;;;;;;6.95;5.82;;;;;;;2.09;73.15;99393.22;2620864;54;20038;-69
2021/10/25 04:39:16;;;;;;;6.55;5.07;;;;;;;2.03;73.29;99398.94;2625366;54;20554;-69
2021/10/25 04:41:49;;;;;;;7.35;5.35;;;;;;;2.07;73.34;99395.13;2624642;47;20577;-69
2021/10/25 04:44:18;;;;;;;8.80;4.90;;;;;;;2.11;73.74;99396.53;2625412;54;20029;-70
2021/10/25 04:46:48;;;;;;;8.75;5.78;;;;;;;2.14;73.88;99397.13;2625438;47;20042;-70
2021/10/25 04:49:18;;;;;;;12.00;8.32;;;;;;;2.17;73.68;99391.66;2625090;47;20026;-71
2021/10/25 04:52:11;;;;;;;7.63;5.43;;;;;;;1.99;73.14;99386.13;2625181;54;20062;-69
2021/10/25 04:54:41;;;;;;;8.45;5.15;;;;;;;1.84;73.06;99384.78;2624149;47;20035;-69
2021/10/25 04:57:15;;;;;;;7.82;5.18;;;;;;;1.89;73.79;99385.22;2624060;54;20037;-70
2021/10/25 04:59:45;;;;;;;7.97;4.97;;;;;;;1.85;73.50;99385.59;2624478;48;20596;-70
2021/10/25 05:02:14;;;;;;;8.25;5.60;;;;;;;1.78;73.63;99379.22;2624326;54;20062;-69
2021/10/25 05:04:45;;;;;;;8.80;5.13;;;;;;;1.70;74.05;99379.81;2624429;46;20035;-70
2021/10/25 05:07:15;;;;;;;6.30;5.30;;;;;;;1.77;74.03;99380.16;2624860;47;20035;-70
2021/10/25 05:09:44;;;;;;;8.93;5.15;;;;;;;1.80;74.12;99382.53;2623920;54;20034;-69
2021/10/25 05:12:18;;;;;;;16.92;6.47;;;;;;;1.82;73.96;99375.41;2623998;47;20039;-69
2021/10/25 05:14:48;;;;;;;9.10;6.20;;;;;;;1.79;73.84;99376.47;2624862;51;20023;-70
2021/10/25 05:17:18;;;;;;;7.78;5.50;;;;;;;1.76;74.04;99371.53;2624814;51;20027;-70
2021/10/25 05:19:54;;;;;;;8.68;5.57;;;;;;;1.87;74.17;99374.06;2624986;47;20034;-70
2021/10/25 05:22:34;;;;;;;12.63;6.15;;;;;;;1.94;74.06;99370.03;2624521;47;20114;-70
2021/10/25 05:25:07;;;;;;;6.38;5.32;;;;;;;1.95;73.82;99378.69;2624914;47;20040;-70
2021/10/25 05:27:39;;;;;;;7.53;5.55;;;;;;;1.98;73.50;99373.22;2622890;47;20034;-70
2021/10/25 05:30:10;;;;;;;11.10;7.85;;;;;;;1.94;73.49;99385.69;2621714;47;20046;-70
2021/10/25 05:32:39;;;;;;;9.65;6.50;;;;;;;1.90;73.47;99381.66;2622541;47;20110;-69
2021/10/25 05:35:10;;;;;;;8.52;5.70;;;;;;;1.83;73.80;99382.28;2624235;54;20562;-69
2021/10/25 05:37:39;;;;;;;9.27;5.43;;;;;;;1.87;73.64;99378.47;2624535;51;20046;-70
2021/10/25 05:40:11;;;;;;;7.72;5.35;;;;;;;1.89;73.84;99379.19;2623662;54;20155;-69
2021/10/25 05:42:53;;;;;;;7.60;5.68;;;;;;;1.92;73.79;99376.34;2623392;47;20034;-77
2021/10/25 05:45:22;;;;;;;8.93;6.15;;;;;;;1.95;73.84;99371.69;2624549;47;20030;-69
2021/10/25 05:47:52;;;;;;;8.68;6.00;;;;;;;1.97;73.23;99364.59;2624710;39;20514;-69
2021/10/25 05:50:22;;;;;;;7.65;5.65;;;;;;;1.94;73.48;99369.22;2624697;54;20030;-69
2021/10/25 05:52:52;;;;;;;8.20;5.63;;;;;;;1.96;73.06;99368.16;2624555;47;20154;-70
2021/10/25 05:55:25;;;;;;;9.35;5.97;;;;;;;2.00;73.42;99376.56;2624792;54;20027;-69
2021/10/25 05:58:00;;;;;;;11.30;6.40;;;;;;;2.01;73.33;99378.19;2624747;47;20030;-69
2021/10/25 06:00:32;;;;;;;9.70;5.85;;;;;;;2.05;73.51;99377.00;2624568;51;20047;-69
2021/10/25 06:03:04;;;;;;;;;;;;;;;2.09;73.30;99381.00;2624578;47;20035;-69
2021/10/25 06:05:33;;;;;;;8.70;5.82;;;;;;;1.92;73.06;99376.34;2625099;39;20310;-69
2021/10/25 06:08:03;;;;;;;9.43;6.93;;;;;;;1.86;73.25;99376.81;2624442;54;20097;-69
2021/10/25 06:10:37;;;;;;;9.98;7.20;;;;;;;1.88;73.59;99377.53;2620319;47;20022;-70
2021/10/25 06:13:19;;;;;;;11.85;7.82;;;;;;;1.92;73.46;99374.56;2618968;54;20078;-70
2021/10/25 06:16:04;;;;;;;12.82;8.00;;;;;;;2.03;73.23;99388.50;2618744;47;20065;-69
2021/10/25 06:18:34;;;;;;;11.52;7.00;;;;;;;2.03;73.23;99391.09;2618745;47;20558;-70
2021/10/25 06:21:05;;;;;;;9.68;6.97;;;;;;;2.03;73.00;99385.88;2619682;47;20034;-69
2021/10/25 06:23:35;;;;;;;8.80;7.18;;;;;;;1.97;73.29;99389.84;2622885;54;20043;-69
2021/10/25 06:26:11;;;;;;;10.93;6.10;;;;;;;1.92;73.57;99389.38;2615963;51;20026;-68
2021/10/25 06:28:48;;;;;;;12.20;6.72;;;;;;;1.95;73.55;99392.53;2618242;47;20581;-68
2021/10/25 06:31:18;;;;;;;11.85;5.82;;;;;;;1.92;73.45;99386.78;2617834;54;20030;-68
2021/10/25 06:34:03;;;;;;;11.60;7.45;;;;;;;2.03;73.28;99397.16;2619131;54;20031;-68
2021/10/25 06:36:34;;;;;;;12.32;7.22;;;;;;;2.08;73.50;99399.38;2618896;54;20558;-68
2021/10/25 06:39:13;;;;;;;9.80;6.68;;;;;;;2.09;73.27;99398.44;2618145;54;20029;-68
2021/10/25 06:41:52;;;;;;;10.55;7.50;;;;;;;2.09;73.35;99401.06;2618221;54;20057;-68
2021/10/25 06:44:44;;;;;;;10.30;7.65;;;;;;;1.98;73.41;99407.13;2618065;47;20057;-68
2021/10/25 06:47:20;;;;;;;11.80;8.27;;;;;;;2.02;73.59;99413.75;2617997;54;20057;-68
2021/10/25 06:49:50;;;;;;;10.48;7.43;;;;;;;2.09;73.21;99408.88;2618088;54;20026;-68
2021/10/25 06:52:20;;;;;;;9.20;7.28;;;;;;;2.19;73.39;99409.78;2617769;46;20105;-69
2021/10/25 06:54:51;;;;;;;10.48;6.63;;;;;;;2.23;72.89;99404.19;2617796;47;20041;-67
2021/10/25 06:57:24;;;;;;;10.15;6.93;;;;;;;2.29;72.68;99404.66;2618391;39;20423;-68
2021/10/25 06:59:57;;;;;;;7.47;6.32;;;;;;;2.28;73.06;99406.41;2618705;39;20429;-67
2021/10/25 07:02:27;;;;;;;9.20;6.75;;;;;;;2.37;72.97;99407.47;2617952;54;20031;-67
2021/10/25 07:05:07;;;;;;;9.50;6.63;;;;;;;2.40;73.07;99415.03;2618177;47;20046;-68
2021/10/25 07:07:37;;;;;;;11.70;6.95;;;;;;;2.56;73.11;99420.66;2619116;54;20023;-67
2021/10/25 07:10:10;;;;;;;9.02;6.78;;;;;;;2.64;72.87;99417.41;2618285;51;20549;-67
2021/10/25 07:12:48;;;;;;;9.45;7.15;;;;;;;2.74;72.61;99413.09;2617928;47;20142;-68
2021/10/25 07:15:21;;;;;;;11.73;7.15;;;;;;;2.70;71.63;99411.69;2617677;54;20554;-67
2021/10/25 07:17:54;;;;;;;10.23;7.63;;;;;;;2.62;72.03;99421.94;2617952;54;20541;-69
2021/10/25 07:20:45;;;;;;;13.60;7.90;;;;;;;2.51;72.26;99416.78;2618300;54;20040;-68
2021/10/25 07:23:36;;;;;;;9.32;7.30;;;;;;;2.56;72.59;99425.03;2618008;49;20118;-68
2021/10/25 07:26:45;;;;;;;13.60;7.75;;;;;;;2.81;72.87;99429.06;2617620;54;20534;-69
2021/10/25 08:01:14;;;;;;;14.10;8.20;;;;;;;3.71;71.15;99435.28;2618107;39;20431;-69
2021/10/25 08:06:35;;;;;;;10.77;8.23;;;;;;;3.88;70.93;99433.81;2617705;49;20030;-69
2021/10/25 08:09:18;;;;;;;12.93;8.00;;;;;;;4.00;71.11;99424.06;2617762;47;20049;-69
2021/10/25 08:11:50;;;;;;;13.73;7.97;;;;;;;4.13;70.91;99426.41;2617984;39;20469;-69
2021/10/25 08:14:36;;;;;;;15.55;10.95;;;;;;;4.24;70.60;99426.25;2617920;47;20030;-70
2021/10/25 08:17:08;;;;;;;10.32;7.85;;;;;;;4.32;70.48;99428.19;2617998;54;20052;-70
2021/10/25 08:19:41;;;;;;;11.40;7.80;;;;;;;4.42;70.68;99423.81;2617897;47;20035;-69
2021/10/25 08:22:15;;;;;;;9.52;7.88;;;;;;;4.54;70.50;99420.06;2617821;47;20030;-69
2021/10/25 08:24:48;;;;;;;13.90;8.82;;;;;;;4.61;69.84;99420.31;2619335;39;20457;-70
2021/10/25 08:27:23;;;;;;;14.02;7.68;;;;;;;4.74;69.88;99407.78;2620096;47;20142;-68
2021/10/25 08:29:54;;;;;;;15.55;8.05;;;;;;;4.84;69.48;99411.19;2620900;54;20035;-70
2021/10/25 08:32:40;;;;;;;9.93;7.90;;;;;;;4.93;69.86;99404.28;2621013;54;20022;-69
2021/10/25 08:40:56;;;;;;;11.65;7.72;;;;;;;5.20;69.92;99403.53;2619949;54;20061;-70
2021/10/25 08:43:26;;;;;;;13.80;7.05;;;;;;;5.23;69.69;99411.09;2620547;47;20522;-70
2021/10/25 08:45:58;;;;;;;11.93;8.05;;;;;;;5.18;69.75;99402.81;2620709;54;20114;-69
2021/10/25 08:48:30;;;;;;;11.85;8.25;;;;;;;5.24;69.70;99404.06;2620758;39;20171;-69
2021/10/25 08:51:02;;;;;;;17.63;8.07;;;;;;;5.28;69.41;99401.00;2620914;54;20034;-69
2021/10/25 08:53:32;;;;;;;13.35;9.32;;;;;;;5.30;69.40;99396.44;2620263;54;20027;-70
2021/10/25 08:56:02;;;;;;;10.05;8.20;;;;;;;5.32;69.90;99396.31;2620728;54;20022;-68
2021/10/25 08:58:53;;;;;;;11.80;8.73;;;;;;;5.35;69.56;99396.03;2621707;54;20052;-71
2021/10/25 09:01:28;;;;;;;13.52;8.82;;;;;;;5.44;69.42;99395.16;2621483;54;20030;-69
2021/10/25 09:04:27;;;;;;;10.10;7.97;;;;;;;5.52;69.56;99397.88;2621434;47;20030;-70
2021/10/25 09:07:06;;;;;;;13.55;8.40;;;;;;;5.66;69.23;99396.53;2621779;47;20658;-69
2021/10/25 09:09:36;;;;;;;14.05;8.13;;;;;;;5.82;69.33;99404.59;2621950;54;20030;-69
2021/10/25 09:12:12;;;;;;;12.75;8.63;;;;;;;5.96;68.83;99387.56;2620246;47;20046;-68
2021/10/25 09:14:50;;;;;;;13.98;8.60;;;;;;;6.10;68.62;99380.97;2620438;46;20053;-68
2021/10/25 09:17:22;;;;;;;12.88;8.90;;;;;;;6.24;68.57;99379.59;2619598;54;20030;-68
2021/10/25 09:20:06;;;;;;;12.95;8.95;;;;;;;6.26;68.07;99375.88;2619871;47;20026;-68
2021/10/25 09:22:40;;;;;;;15.05;8.43;;;;;;;6.38;67.95;99376.47;2620223;54;20029;-68
2021/10/25 09:25:11;;;;;;;13.02;9.43;;;;;;;6.52;67.50;99364.59;2618969;54;20027;-69
2021/10/25 09:27:51;;;;;;;12.07;9.23;;;;;;;6.59;67.86;99363.00;2618100;54;20027;-68
2021/10/25 09:30:40;;;;;;;15.23;10.25;;;;;;;6.82;67.15;99365.97;2617400;51;20046;-69
2021/10/25 09:33:18;;;;;;;15.18;9.32;;;;;;;6.92;66.84;99361.41;2617624;54;20027;-68
2021/10/25 09:36:02;;;;;;;15.15;9.40;;;;;;;7.08;67.15;99363.31;2618464;54;20034;-68
2021/10/25 09:38:52;;;;;;;;;;;;;;;7.26;66.93;99360.59;2618145;47;20061;-69
2021/10/25 09:50:05;;;;;;;18.35;10.57;;;;;;;7.90;65.88;99348.63;2617155;54;20580;-68
2021/10/25 09:52:40;;;;;;;23.85;12.55;;;;;;;8.05;65.44;99354.09;2617639;47;20033;-68
2021/10/25 09:55:21;;;;;;;28.55;12.48;;;;;;;8.15;64.69;99352.09;2616418;47;20053;-70
2021/10/25 09:58:15;;;;;;;21.58;12.65;;;;;;;8.28;64.75;99343.72;2617789;54;20022;-70
2021/10/25 10:00:53;;;;;;;19.42;11.45;;;;;;;8.43;63.58;99342.94;2617636;54;20039;-69
2021/10/25 10:03:24;;;;;;;20.92;10.05;;;;;;;8.52;64.13;99341.09;2617694;47;20533;-70
2021/10/25 10:06:02;;;;;;;21.30;10.93;;;;;;;8.62;64.20;99340.94;2618051;47;20074;-70
2021/10/25 10:08:36;;;;;;;27.92;19.80;;;;;;;8.79;63.78;99342.56;2618120;47;20022;-70
2021/10/25 10:11:18;;;;;;;28.98;17.42;;;;;;;8.99;63.06;99339.56;2617695;54;20161;-70
2021/10/25 10:13:49;;;;;;;15.88;10.00;;;;;;;9.09;63.28;99340.16;2618007;47;20046;-71
2021/10/25 10:16:35;;;;;;;14.88;10.32;;;;;;;9.20;63.29;99341.63;2618149;46;20030;-70
2021/10/25 10:19:09;;;;;;;14.85;9.82;;;;;;;9.32;63.21;99337.63;2618081;47;20053;-68
2021/10/25 10:22:10;;;;;;;15.70;10.43;;;;;;;9.52;63.15;99345.94;2618080;54;20038;-68
2021/10/25 10:24:57;;;;;;;16.70;10.02;;;;;;;9.69;62.74;99342.22;2617906;47;20050;-68
2021/10/25 10:27:30;;;;;;;13.95;9.23;;;;;;;9.86;62.27;99341.13;2618410;39;20420;-67
2021/10/25 10:30:02;;;;;;;15.68;8.38;;;;;;;10.12;61.65;99339.97;2617832;54;20118;-68
2021/10/25 10:33:07;;;;;;;24.85;13.02;;;;;;;10.31;62.05;99339.50;2617990;54;20027;-68
2021/10/25 10:35:48;;;;;;;11.05;6.32;;;;;;;10.33;62.21;99326.97;2618097;47;20038;-68
2021/10/25 10:38:17;;;;;;;10.32;6.07;;;;;;;10.43;62.45;99329.34;2618826;54;20094;-68
2021/10/25 10:41:18;;;;;;;9.45;5.47;;;;;;;10.56;62.26;99321.63;2616866;47;20062;-68
2021/10/25 10:44:13;;;;;;;11.75;6.38;;;;;;;10.75;62.48;99320.28;2617748;54;20035;-69
2021/10/25 10:46:50;;;;;;;15.45;7.90;;;;;;;10.90;62.32;99318.47;2617776;54;20027;-69
2021/10/25 10:49:23;;;;;;;16.38;9.88;;;;;;;10.99;62.08;99323.69;2618429;54;20033;-69
2021/10/25 10:52:22;;;;;;;10.20;6.85;;;;;;;11.12;61.44;99319.38;2618283;54;20031;-68
2021/10/25 10:55:05;;;;;;;16.08;9.60;;;;;;;11.21;61.28;99316.63;2618366;54;20018;-68
2021/10/25 12:27:04;;;;;;;6.32;3.22;;;;;;;15.04;54.93;99202.59;2618362;39;20497;-68
2021/10/25 12:29:34;;;;;;;4.25;2.50;;;;;;;15.11;54.53;99200.72;2620315;54;20019;-67
2021/10/25 12:32:11;;;;;;;6.25;3.25;;;;;;;15.19;54.91;99193.53;2621995;39;20421;-69
2021/10/25 12:34:55;;;;;;;4.97;3.35;;;;;;;15.35;54.48;99201.84;2621371;54;20249;-67
2021/10/25 12:37:27;;;;;;;6.07;3.00;;;;;;;15.48;54.23;99197.47;2621615;54;20043;-67
2021/10/25 12:39:58;;;;;;;5.20;3.13;;;;;;;15.53;54.28;99186.97;2621785;54;20082;-67
2021/10/25 12:42:42;;;;;;;8.02;5.05;;;;;;;15.63;54.18;99189.97;2621382;39;20437;-67
2021/10/25 12:45:18;;;;;;;5.22;3.25;;;;;;;15.69;53.62;99177.69;2621136;46;20023;-68
2021/10/25 12:47:50;;;;;;;7.78;4.45;;;;;;;15.75;53.71;99179.47;2620742;47;20078;-68
2021/10/25 12:50:19;;;;;;;5.88;3.80;;;;;;;15.83;53.69;99179.19;2621428;54;20063;-67
2021/10/25 12:52:56;;;;;;;9.35;5.50;;;;;;;15.84;53.64;99167.50;2622010;54;20026;-68
2021/10/25 12:55:26;;;;;;;8.48;3.30;;;;;;;15.89;53.34;99167.69;2621407;51;20094;-68
2021/10/25 12:58:01;;;;;;;7.25;4.10;;;;;;;15.94;53.23;99167.00;2620934;54;20026;-68
2021/10/25 13:00:31;;;;;;;6.25;3.40;;;;;;;15.96;53.13;99165.78;2621956;54;20034;-67
2021/10/25 13:03:01;;;;;;;5.65;3.55;;;;;;;15.97;52.53;99156.72;2621939;39;20395;-68
2021/10/25 13:05:35;;;;;;;5.38;3.28;;;;;;;15.94;52.56;99159.81;2621397;54;20222;-68
2021/10/25 13:08:07;;;;;;;4.35;3.10;;;;;;;15.97;52.79;99156.72;2621526;54;20026;-67
2021/10/25 13:10:39;;;;;;;6.07;3.47;;;;;;;15.97;52.58;99150.59;2621449;54;20027;-68
2021/10/25 13:13:15;;;;;;;5.18;3.30;;;;;;;16.03;52.86;99149.69;2622122;54;20031;-69
2021/10/25 13:15:47;;;;;;;7.07;3.50;;;;;;;16.04;52.50;99148.66;2621540;39;20395;-69
2021/10/25 13:18:17;;;;;;;3.90;2.70;;;;;;;16.13;52.41;99143.88;2622020;47;20042;-69
2021/10/25 13:20:47;;;;;;;3.97;2.70;;;;;;;16.18;52.38;99138.69;2621736;47;20174;-69
2021/10/25 13:23:17;;;;;;;6.03;3.42;;;;;;;16.18;52.19;99134.16;2622253;54;20030;-69
2021/10/25 13:25:47;;;;;;;8.02;3.70;;;;;;;16.21;52.07;99135.59;2622350;54;20026;-68
2021/10/25 13:28:21;;;;;;;6.18;4.07;;;;;;;16.20;52.22;99133.94;2622486;47;20026;-69
2021/10/25 13:30:51;;;;;;;5.03;3.35;;;;;;;16.20;52.41;99140.09;2622055;54;20570;-68
2021/10/25 13:33:21;;;;;;;5.68;3.83;;;;;;;16.20;52.03;99123.28;2620510;47;20035;-68
2021/10/25 13:35:50;;;;;;;4.28;3.33;;;;;;;16.21;52.10;99135.59;2619635;47;20035;-69
2021/10/25 13:38:20;;;;;;;5.03;4.30;;;;;;;16.26;52.12;99141.06;2620229;54;20037;-69
2021/10/25 13:40:50;;;;;;;6.38;3.83;;;;;;;16.24;52.48;99130.59;2620093;54;20030;-68
2021/10/25 13:43:36;;;;;;;5.27;3.53;;;;;;;16.22;52.55;99130.03;2620077;54;20606;-69
2021/10/25 13:46:06;;;;;;;4.68;3.65;;;;;;;16.23;52.30;99126.31;2620693;47;20107;-69
2021/10/25 13:48:36;;;;;;;4.55;3.72;;;;;;;16.23;52.38;99114.84;2621107;39;20494;-69
2021/10/25 13:51:06;;;;;;;5.78;4.20;;;;;;;16.30;52.38;99123.59;2620577;47;20030;-68
2021/10/25 13:53:36;;;;;;;4.70;3.63;;;;;;;16.31;52.41;99119.88;2621003;54;20038;-68
2021/10/25 13:56:08;;;;;;;3.75;3.05;;;;;;;16.32;52.46;99119.63;2621710;51;20025;-69
2021/10/25 13:58:41;;;;;;;7.07;3.70;;;;;;;16.37;52.41;99119.00;2622793;54;20044;-68
2021/10/25 14:01:11;;;;;;;6.37;3.70;;;;;;;16.40;52.34;99115.06;2622166;46;20034;-69
2021/10/25 14:03:42;;;;;;;15.60;8.43;;;;;;;16.47;52.17;99111.28;2622182;47;20046;-71
2021/10/25 14:06:13;;;;;;;16.80;11.38;;;;;;;16.48;52.12;99120.09;2622847;54;20287;-67
2021/10/25 14:08:45;;;;;;;4.90;3.83;;;;;;;16.39;52.10;99108.09;2622461;47;20114;-69
2021/10/25 14:11:14;;;;;;;7.25;5.72;;;;;;;16.38;52.00;99109.16;2622923;54;20089;-69
2021/10/25 14:13:56;;;;;;;6.43;4.45;;;;;;;16.35;52.25;99113.06;2622908;54;20034;-69
2021/10/25 14:16:38;;;;;;;6.85;4.20;;;;;;;16.31;52.20;99107.34;2622017;47;20031;-69
2021/10/25 14:19:09;;;;;;;9.00;4.05;;;;;;;16.27;52.31;99113.34;2622062;54;20034;-68
2021/10/25 14:21:39;;;;;;;5.60;3.95;;;;;;;16.23;52.11;99109.50;2621614;54;20030;-69
2021/10/25 14:24:11;;;;;;;5.80;3.65;;;;;;;16.22;52.54;99110.53;2621833;51;20034;-70
2021/10/25 14:26:41;;;;;;;10.18;3.90;;;;;;;16.13;52.49;99115.34;2622504;54;20121;-69
2021/10/25 14:29:13;;;;;;;4.97;3.53;;;;;;;16.10;53.05;99108.59;2622536;54;20025;-69
2021/10/25 14:31:45;;;;;;;6.55;3.65;;;;;;;16.02;53.27;99116.88;2619608;47;20122;-68
2021/10/25 14:34:15;;;;;;;12.73;3.78;;;;;;;15.96;53.26;99109.78;2619385;47;20035;-68
2021/10/25 14:36:50;;;;;;;7.20;4.05;;;;;;;15.96;53.56;99100.94;2619562;46;20046;-68
2021/10/25 14:39:26;;;;;;;6.70;3.75;;;;;;;15.95;53.98;99112.66;2619599;54;20030;-69
2021/10/25 14:42:00;;;;;;;7.15;4.70;;;;;;;15.98;53.49;99109.56;2620124;54;20037;-69
2021/10/25 14:44:37;;;;;;;7.10;3.88;;;;;;;16.00;53.39;99100.31;2622241;54;20027;-67
2021/10/25 14:47:27;;;;;;;5.15;3.63;;;;;;;16.06;53.68;99101.25;2621970;54;20058;-67
2021/10/25 14:55:29;;;;;;;6.78;4.30;;;;;;;16.05;53.89;99091.66;2621316;47;20035;-68
2021/10/25 14:57:59;;;;;;;5.22;3.67;;;;;;;16.06;53.93;99093.28;2621620;47;20137;-68
2021/10/25 15:00:32;;;;;;;6.75;4.57;;;;;;;16.05;53.74;99091.66;2623192;54;20039;-68
2021/10/25 15:03:22;;;;;;;6.95;4.47;;;;;;;16.04;54.47;99093.50;2622794;47;20035;-67